createdAt,value
2017-01-03T00:00:28.119Z,0
2017-01-03T00:01:08.598Z,0
2017-01-03T00:01:49.084Z,0
2017-01-03T00:02:29.658Z,0
2017-01-03T00:03:10.192Z,0
2017-01-03T00:03:50.705Z,0
2017-01-03T00:04:31.217Z,0
2017-01-03T00:05:11.655Z,0
2017-01-03T00:05:52.133Z,0
2017-01-03T00:06:32.636Z,0
2017-01-03T00:07:13.095Z,0
2017-01-03T00:07:53.626Z,0
2017-01-03T00:08:34.084Z,0
2017-01-03T00:09:14.555Z,0
2017-01-03T00:09:55.125Z,0
2017-01-03T00:10:35.538Z,0
2017-01-03T00:11:16.129Z,0
2017-01-03T00:11:56.575Z,0
2017-01-03T00:12:37.104Z,0
2017-01-03T00:13:17.559Z,0
2017-01-03T00:13:58.143Z,0
2017-01-03T00:14:38.586Z,0
2017-01-03T00:15:19.026Z,0
2017-01-03T00:15:59.538Z,0
2017-01-03T00:16:40.029Z,0
2017-01-03T00:17:21.139Z,0
2017-01-03T00:18:01.034Z,0
2017-01-03T00:18:41.472Z,0
2017-01-03T00:19:21.900Z,0
2017-01-03T00:20:02.388Z,0
2017-01-03T00:20:42.832Z,0
2017-01-03T00:21:23.357Z,0
2017-01-03T00:22:03.900Z,0
2017-01-03T00:22:44.379Z,0
2017-01-03T00:23:24.931Z,0
2017-01-03T00:24:05.363Z,0
2017-01-03T00:24:45.893Z,0
2017-01-03T00:25:26.336Z,0
2017-01-03T00:26:06.852Z,0
2017-01-03T00:26:47.374Z,0
2017-01-03T00:27:27.751Z,0
2017-01-03T00:28:08.287Z,0
2017-01-03T00:28:48.802Z,0
2017-01-03T00:29:29.272Z,0
2017-01-03T00:30:09.830Z,0
2017-01-03T00:30:50.278Z,0
2017-01-03T00:31:30.782Z,0
2017-01-03T00:32:11.272Z,0
2017-01-03T00:32:51.757Z,0
2017-01-03T00:35:21.201Z,0
2017-01-03T00:36:01.718Z,0
2017-01-03T00:36:42.218Z,0
2017-01-03T00:37:22.678Z,0
2017-01-03T00:38:03.173Z,0
2017-01-03T00:38:43.617Z,0
2017-01-03T00:39:24.096Z,0
2017-01-03T00:40:04.587Z,0
2017-01-03T00:40:45.095Z,0
2017-01-03T00:41:25.592Z,0
2017-01-03T00:42:06.039Z,0
2017-01-03T00:42:46.518Z,0
2017-01-03T00:43:26.975Z,0
2017-01-03T00:44:07.566Z,0
2017-01-03T00:44:48.141Z,0
2017-01-03T00:45:28.625Z,0
2017-01-03T00:46:09.100Z,0
2017-01-03T00:46:49.623Z,0
2017-01-03T00:47:30.223Z,0
2017-01-03T00:48:10.713Z,0
2017-01-03T00:48:51.166Z,0
2017-01-03T00:49:31.672Z,0
2017-01-03T00:50:12.218Z,0
2017-01-03T00:50:59.084Z,0
2017-01-03T00:51:39.538Z,0
2017-01-03T00:52:20.075Z,0
2017-01-03T00:53:00.480Z,0
2017-01-03T00:53:41.060Z,0
2017-01-03T00:54:21.498Z,0
2017-01-03T00:55:01.978Z,0
2017-01-03T00:55:42.541Z,0
2017-01-03T00:56:22.887Z,0
2017-01-03T00:57:03.473Z,0
2017-01-03T00:57:43.901Z,0
2017-01-03T00:58:24.484Z,0
2017-01-03T00:59:04.988Z,0
2017-01-03T00:59:45.412Z,0
2017-01-03T01:00:25.941Z,0
2017-01-03T01:01:06.394Z,0
2017-01-03T01:01:46.932Z,0
2017-01-03T01:02:27.457Z,0
2017-01-03T01:03:07.960Z,0
2017-01-03T01:03:48.458Z,0
2017-01-03T01:04:28.942Z,0
2017-01-03T01:05:09.411Z,0
2017-01-03T01:05:49.963Z,0
2017-01-03T01:06:30.434Z,0
2017-01-03T01:07:10.955Z,0
2017-01-03T01:07:51.429Z,0
2017-01-03T01:08:31.937Z,0
2017-01-03T01:09:12.401Z,0
2017-01-03T01:09:52.897Z,0
2017-01-03T01:10:33.324Z,0
2017-01-03T01:11:13.836Z,0
2017-01-03T01:11:54.290Z,0
2017-01-03T01:12:34.779Z,0
2017-01-03T01:13:15.244Z,0
2017-01-03T01:13:55.794Z,0
2017-01-03T01:14:36.255Z,0
2017-01-03T01:15:16.779Z,0
2017-01-03T01:15:57.252Z,0
2017-01-03T01:16:37.796Z,0
2017-01-03T01:17:18.322Z,0
2017-01-03T01:17:58.820Z,0
2017-01-03T01:18:39.291Z,0
2017-01-03T01:19:19.736Z,0
2017-01-03T01:20:00.273Z,0
2017-01-03T01:20:40.779Z,0
2017-01-03T01:21:21.156Z,0
2017-01-03T01:22:01.646Z,0
2017-01-03T01:22:42.184Z,0
2017-01-03T01:23:22.645Z,0
2017-01-03T01:24:03.116Z,0
2017-01-03T01:24:43.643Z,0
2017-01-03T01:25:24.122Z,0
2017-01-03T01:26:04.646Z,0
2017-01-03T01:26:45.117Z,0
2017-01-03T01:27:25.593Z,0
2017-01-03T01:28:06.090Z,0
2017-01-03T01:28:46.574Z,0
2017-01-03T01:29:27.093Z,0
2017-01-03T01:30:07.563Z,0
2017-01-03T01:30:48.059Z,0
2017-01-03T01:31:28.553Z,0
2017-01-03T01:32:09.081Z,0
2017-01-03T01:32:49.538Z,0
2017-01-03T01:33:30.014Z,0
2017-01-03T01:34:10.540Z,0
2017-01-03T01:34:51.050Z,0
2017-01-03T01:35:31.553Z,0
2017-01-03T01:36:12.017Z,0
2017-01-03T01:36:52.547Z,0
2017-01-03T01:37:33.002Z,0
2017-01-03T01:38:13.533Z,0
2017-01-03T01:38:54.031Z,0
2017-01-03T01:39:34.492Z,0
2017-01-03T01:40:15.031Z,0
2017-01-03T01:40:55.455Z,0
2017-01-03T01:41:35.946Z,0
2017-01-03T01:42:16.410Z,0
2017-01-03T01:42:56.940Z,0
2017-01-03T01:43:37.391Z,0
2017-01-03T01:44:17.887Z,0
2017-01-03T01:44:58.362Z,0
2017-01-03T01:45:38.837Z,0
2017-01-03T01:46:19.313Z,0
2017-01-03T01:46:59.863Z,0
2017-01-03T01:47:40.351Z,0
2017-01-03T01:48:20.792Z,0
2017-01-03T01:49:01.287Z,0
2017-01-03T01:49:41.836Z,0
2017-01-03T01:50:22.271Z,0
2017-01-03T01:51:02.731Z,0
2017-01-03T01:51:43.242Z,0
2017-01-03T01:52:23.707Z,0
2017-01-03T01:53:04.200Z,0
2017-01-03T01:53:44.656Z,0
2017-01-03T01:54:25.207Z,0
2017-01-03T01:55:05.669Z,0
2017-01-03T01:55:46.141Z,0
2017-01-03T01:56:26.650Z,0
2017-01-03T01:57:07.163Z,0
2017-01-03T01:57:47.627Z,0
2017-01-03T01:58:28.115Z,0
2017-01-03T01:59:08.679Z,0
2017-01-03T01:59:49.139Z,0
2017-01-03T02:00:29.647Z,0
2017-01-03T02:01:10.197Z,0
2017-01-03T02:01:50.639Z,0
2017-01-03T02:02:31.159Z,0
2017-01-03T02:03:11.610Z,0
2017-01-03T02:03:52.114Z,0
2017-01-03T02:04:32.568Z,0
2017-01-03T02:05:13.133Z,0
2017-01-03T02:05:53.564Z,0
2017-01-03T02:06:34.058Z,0
2017-01-03T02:07:14.609Z,0
2017-01-03T02:07:55.067Z,0
2017-01-03T02:08:35.527Z,0
2017-01-03T02:09:16.061Z,0
2017-01-03T02:09:56.528Z,0
2017-01-03T02:10:37.018Z,0
2017-01-03T02:11:17.467Z,0
2017-01-03T02:11:57.984Z,0
2017-01-03T02:12:38.468Z,0
2017-01-03T02:13:18.978Z,0
2017-01-03T02:13:59.494Z,0
2017-01-03T02:14:39.991Z,0
2017-01-03T02:15:20.439Z,0
2017-01-03T02:16:01.049Z,0
2017-01-03T02:16:41.528Z,0
2017-01-03T02:17:21.992Z,0
2017-01-03T02:18:02.497Z,0
2017-01-03T02:18:42.973Z,0
2017-01-03T02:19:23.450Z,0
2017-01-03T02:20:03.978Z,0
2017-01-03T02:20:44.440Z,0
2017-01-03T02:21:24.908Z,0
2017-01-03T02:22:05.436Z,0
2017-01-03T02:22:45.962Z,0
2017-01-03T02:23:26.506Z,0
2017-01-03T02:24:07.008Z,0
2017-01-03T02:24:47.451Z,0
2017-01-03T02:25:27.908Z,0
2017-01-03T02:26:08.437Z,0
2017-01-03T02:26:48.892Z,0
2017-01-03T02:27:29.406Z,0
2017-01-03T02:28:09.883Z,0
2017-01-03T02:28:50.412Z,0
2017-01-03T02:29:30.825Z,0
2017-01-03T02:30:13.124Z,0
2017-01-03T02:30:53.613Z,0
2017-01-03T02:31:34.082Z,0
2017-01-03T02:32:14.565Z,0
2017-01-03T02:32:55.057Z,0
2017-01-03T02:33:35.564Z,0
2017-01-03T02:34:16.049Z,0
2017-01-03T02:34:56.531Z,0
2017-01-03T02:35:37.056Z,0
2017-01-03T02:36:17.557Z,0
2017-01-03T02:36:58.127Z,0
2017-01-03T02:37:38.593Z,0
2017-01-03T02:38:19.104Z,0
2017-01-03T02:38:59.568Z,0
2017-01-03T02:39:40.062Z,0
2017-01-03T02:40:20.546Z,0
2017-01-03T02:41:01.065Z,0
2017-01-03T02:41:41.536Z,0
2017-01-03T02:42:22.161Z,0
2017-01-03T02:43:02.670Z,0
2017-01-03T02:43:43.171Z,0
2017-01-03T02:44:23.664Z,0
2017-01-03T02:45:04.123Z,0
2017-01-03T02:45:44.594Z,0
2017-01-03T02:46:25.107Z,0
2017-01-03T02:47:05.576Z,0
2017-01-03T02:47:46.093Z,0
2017-01-03T02:48:26.553Z,0
2017-01-03T02:49:07.043Z,0
2017-01-03T02:49:47.552Z,0
2017-01-03T02:50:28.093Z,0
2017-01-03T02:51:08.543Z,0
2017-01-03T02:51:48.991Z,0
2017-01-03T02:52:29.498Z,0
2017-01-03T02:53:09.953Z,0
2017-01-03T02:53:50.433Z,0
2017-01-03T02:54:30.949Z,0
2017-01-03T02:55:11.453Z,0
2017-01-03T02:55:51.890Z,0
2017-01-03T02:56:32.388Z,0
2017-01-03T02:57:12.898Z,0
2017-01-03T02:57:53.459Z,0
2017-01-03T02:58:34.812Z,0
2017-01-03T02:59:15.314Z,0
2017-01-03T02:59:55.805Z,0
2017-01-03T03:00:36.296Z,0
2017-01-03T03:01:16.795Z,0
2017-01-03T03:01:57.215Z,0
2017-01-03T03:02:37.700Z,0
2017-01-03T03:03:18.293Z,0
2017-01-03T03:03:58.797Z,0
2017-01-03T03:04:39.284Z,0
2017-01-03T03:05:19.767Z,0
2017-01-03T03:06:00.251Z,0
2017-01-03T03:06:40.733Z,0
2017-01-03T03:07:21.251Z,0
2017-01-03T03:08:01.743Z,0
2017-01-03T03:08:42.224Z,0
2017-01-03T03:09:22.714Z,0
2017-01-03T03:10:03.227Z,0
2017-01-03T03:10:43.696Z,0
2017-01-03T03:11:24.182Z,0
2017-01-03T03:12:04.692Z,0
2017-01-03T03:12:45.268Z,0
2017-01-03T03:13:25.735Z,0
2017-01-03T03:14:06.252Z,0
2017-01-03T03:14:46.704Z,0
2017-01-03T03:15:27.193Z,0
2017-01-03T03:16:07.734Z,0
2017-01-03T03:16:48.172Z,0
2017-01-03T03:17:28.670Z,0
2017-01-03T03:18:09.197Z,0
2017-01-03T03:18:49.681Z,0
2017-01-03T03:19:30.157Z,0
2017-01-03T03:20:10.642Z,0
2017-01-03T03:20:51.143Z,0
2017-01-03T03:21:31.675Z,0
2017-01-03T03:22:12.155Z,0
2017-01-03T03:22:52.625Z,0
2017-01-03T03:23:33.131Z,0
2017-01-03T03:24:13.565Z,0
2017-01-03T03:24:54.206Z,0
2017-01-03T03:25:34.774Z,0
2017-01-03T03:26:15.282Z,0
2017-01-03T03:26:55.733Z,0
2017-01-03T03:27:36.226Z,0
2017-01-03T03:28:16.751Z,0
2017-01-03T03:28:57.240Z,0
2017-01-03T03:29:37.774Z,0
2017-01-03T03:30:18.223Z,0
2017-01-03T03:30:58.748Z,0
2017-01-03T03:31:39.200Z,0
2017-01-03T03:32:19.719Z,0
2017-01-03T03:33:00.197Z,0
2017-01-03T03:33:40.656Z,0
2017-01-03T03:34:21.177Z,0
2017-01-03T03:35:01.647Z,0
2017-01-03T03:35:42.165Z,0
2017-01-03T03:36:22.648Z,0
2017-01-03T03:37:03.127Z,0
2017-01-03T03:37:43.652Z,0
2017-01-03T03:38:24.142Z,0
2017-01-03T03:39:04.599Z,0
2017-01-03T03:39:45.127Z,0
2017-01-03T03:40:25.602Z,0
2017-01-03T03:41:06.090Z,0
2017-01-03T03:41:46.548Z,0
2017-01-03T03:42:27.116Z,0
2017-01-03T03:43:07.610Z,0
2017-01-03T03:43:48.134Z,0
2017-01-03T03:44:28.654Z,0
2017-01-03T03:45:09.185Z,0
2017-01-03T03:45:49.642Z,0
2017-01-03T03:46:30.125Z,0
2017-01-03T03:47:10.597Z,0
2017-01-03T03:47:51.083Z,0
2017-01-03T03:48:31.645Z,0
2017-01-03T03:49:12.124Z,0
2017-01-03T03:49:52.596Z,0
2017-01-03T03:50:33.057Z,0
2017-01-03T03:51:13.545Z,0
2017-01-03T03:51:54.041Z,0
2017-01-03T03:52:34.542Z,0
2017-01-03T03:53:15.035Z,0
2017-01-03T03:53:55.564Z,0
2017-01-03T03:54:36.026Z,0
2017-01-03T03:55:16.471Z,0
2017-01-03T03:55:57.008Z,0
2017-01-03T03:56:37.486Z,0
2017-01-03T03:57:18.029Z,0
2017-01-03T03:57:58.520Z,0
2017-01-03T03:58:39.028Z,0
2017-01-03T03:59:19.518Z,0
2017-01-03T04:00:00.077Z,0
2017-01-03T04:00:40.520Z,0
2017-01-03T04:03:09.078Z,0
2017-01-03T04:03:49.586Z,0
2017-01-03T04:04:30.099Z,0
2017-01-03T04:05:10.589Z,0
2017-01-03T04:05:51.279Z,0
2017-01-03T04:06:31.700Z,0
2017-01-03T04:07:12.200Z,0
2017-01-03T04:07:52.700Z,0
2017-01-03T04:08:33.208Z,0
2017-01-03T04:09:13.661Z,0
2017-01-03T04:09:54.148Z,0
2017-01-03T04:10:34.653Z,0
2017-01-03T04:11:15.143Z,0
2017-01-03T04:11:55.654Z,0
2017-01-03T04:12:36.145Z,0
2017-01-03T04:13:16.798Z,0
2017-01-03T04:13:57.256Z,0
2017-01-03T04:14:37.731Z,0
2017-01-03T04:15:18.246Z,0
2017-01-03T04:15:58.692Z,0
2017-01-03T04:16:39.197Z,0
2017-01-03T04:17:19.894Z,0
2017-01-03T04:18:00.334Z,0
2017-01-03T04:18:40.902Z,0
2017-01-03T04:19:21.350Z,0
2017-01-03T04:20:01.866Z,0
2017-01-03T04:20:42.328Z,0
2017-01-03T04:21:22.841Z,0
2017-01-03T04:22:03.305Z,0
2017-01-03T04:22:43.798Z,0
2017-01-03T04:23:24.335Z,0
2017-01-03T04:24:04.783Z,0
2017-01-03T04:24:45.263Z,0
2017-01-03T04:25:25.746Z,0
2017-01-03T04:26:06.227Z,0
2017-01-03T04:26:46.949Z,0
2017-01-03T04:27:27.399Z,0
2017-01-03T04:28:07.927Z,0
2017-01-03T04:28:48.419Z,0
2017-01-03T04:29:28.891Z,0
2017-01-03T04:30:09.341Z,0
2017-01-03T04:30:49.853Z,0
2017-01-03T04:32:48.028Z,0
2017-01-03T04:33:28.487Z,0
2017-01-03T04:34:09.051Z,0
2017-01-03T04:34:49.542Z,0
2017-01-03T04:35:30.021Z,0
2017-01-03T04:36:10.696Z,0
2017-01-03T04:36:51.160Z,0
2017-01-03T04:37:31.610Z,0
2017-01-03T04:38:12.118Z,0
2017-01-03T04:38:52.605Z,0
2017-01-03T04:39:33.099Z,0
2017-01-03T04:40:13.573Z,0
2017-01-03T04:40:54.106Z,0
2017-01-03T04:41:34.533Z,0
2017-01-03T04:42:15.006Z,0
2017-01-03T04:42:55.561Z,0
2017-01-03T04:43:36.048Z,0
2017-01-03T04:44:16.546Z,0
2017-01-03T04:44:57.013Z,0
2017-01-03T04:45:37.529Z,0
2017-01-03T04:46:18.046Z,0
2017-01-03T04:46:58.565Z,0
2017-01-03T04:47:39.006Z,0
2017-01-03T04:48:19.470Z,0
2017-01-03T04:49:00.008Z,0
2017-01-03T04:49:40.457Z,0
2017-01-03T04:50:21.026Z,0
2017-01-03T04:51:01.469Z,0
2017-01-03T04:51:41.970Z,0
2017-01-03T04:52:22.480Z,0
2017-01-03T04:53:02.998Z,0
2017-01-03T04:53:43.461Z,0
2017-01-03T04:54:23.926Z,0
2017-01-03T04:55:04.489Z,0
2017-01-03T04:55:44.980Z,0
2017-01-03T04:56:25.476Z,0
2017-01-03T04:57:06.003Z,0
2017-01-03T04:57:46.424Z,0
2017-01-03T04:58:26.923Z,0
2017-01-03T04:59:07.472Z,0
2017-01-03T04:59:47.915Z,0
2017-01-03T05:00:28.543Z,0
2017-01-03T05:01:09.086Z,0
2017-01-03T05:01:49.509Z,0
2017-01-03T05:02:30.051Z,0
2017-01-03T05:03:10.541Z,0
2017-01-03T05:03:50.974Z,0
2017-01-03T05:04:31.478Z,0
2017-01-03T05:05:11.985Z,0
2017-01-03T05:05:52.417Z,0
2017-01-03T05:06:32.868Z,0
2017-01-03T05:07:13.417Z,0
2017-01-03T05:07:53.900Z,0
2017-01-03T05:08:34.414Z,0
2017-01-03T05:09:14.843Z,0
2017-01-03T05:09:55.355Z,0
2017-01-03T05:10:35.798Z,0
2017-01-03T05:11:16.276Z,0
2017-01-03T05:11:56.805Z,0
2017-01-03T05:12:37.307Z,0
2017-01-03T05:13:17.793Z,0
2017-01-03T05:13:58.270Z,0
2017-01-03T05:14:38.779Z,0
2017-01-03T05:15:19.317Z,0
2017-01-03T05:15:59.801Z,0
2017-01-03T05:16:40.287Z,0
2017-01-03T05:17:20.763Z,0
2017-01-03T05:18:01.223Z,0
2017-01-03T05:18:41.689Z,0
2017-01-03T05:19:22.244Z,0
2017-01-03T05:20:02.752Z,0
2017-01-03T05:20:43.183Z,0
2017-01-03T05:21:23.677Z,0
2017-01-03T05:22:04.203Z,0
2017-01-03T05:22:44.662Z,0
2017-01-03T05:23:25.159Z,0
2017-01-03T05:24:05.579Z,0
2017-01-03T05:24:46.118Z,0
2017-01-03T05:25:26.588Z,0
2017-01-03T05:26:07.105Z,0
2017-01-03T05:26:47.587Z,0
2017-01-03T05:27:28.070Z,0
2017-01-03T05:28:08.568Z,0
2017-01-03T05:28:49.073Z,0
2017-01-03T05:29:29.626Z,0
2017-01-03T05:30:10.078Z,0
2017-01-03T05:30:50.573Z,0
2017-01-03T05:31:31.033Z,0
2017-01-03T05:32:11.548Z,0
2017-01-03T05:32:52.012Z,0
2017-01-03T05:33:32.533Z,0
2017-01-03T05:34:13.016Z,0
2017-01-03T05:34:53.450Z,0
2017-01-03T05:35:33.946Z,0
2017-01-03T05:36:14.473Z,0
2017-01-03T05:36:54.956Z,0
2017-01-03T05:37:35.465Z,0
2017-01-03T05:38:16.008Z,0
2017-01-03T05:38:56.479Z,0
2017-01-03T05:39:36.998Z,0
2017-01-03T05:40:17.472Z,0
2017-01-03T05:40:58.002Z,0
2017-01-03T05:41:38.457Z,0
2017-01-03T05:42:18.942Z,0
2017-01-03T05:42:59.426Z,0
2017-01-03T05:43:39.917Z,0
2017-01-03T05:44:20.400Z,0
2017-01-03T05:45:00.922Z,0
2017-01-03T05:45:41.438Z,0
2017-01-03T05:46:21.895Z,0
2017-01-03T05:48:50.363Z,0
2017-01-03T05:49:30.850Z,0
2017-01-03T05:50:11.404Z,0
2017-01-03T05:50:51.844Z,0
2017-01-03T05:51:32.423Z,0
2017-01-03T05:52:12.855Z,0
2017-01-03T05:52:53.342Z,0
2017-01-03T05:53:33.824Z,0
2017-01-03T05:54:14.316Z,0
2017-01-03T05:54:54.749Z,0
2017-01-03T05:55:35.242Z,0
2017-01-03T05:56:15.778Z,0
2017-01-03T05:56:56.284Z,0
2017-01-03T05:57:36.767Z,0
2017-01-03T05:58:17.250Z,0
2017-01-03T05:58:57.747Z,0
2017-01-03T05:59:38.238Z,0
2017-01-03T06:00:18.761Z,0
2017-01-03T06:00:59.182Z,0
2017-01-03T06:01:39.692Z,0
2017-01-03T06:02:20.270Z,0
2017-01-03T06:03:00.795Z,0
2017-01-03T06:03:41.206Z,0
2017-01-03T06:04:21.753Z,0
2017-01-03T06:05:02.295Z,0
2017-01-03T06:05:42.861Z,0
2017-01-03T06:06:23.268Z,0
2017-01-03T06:07:03.723Z,0
2017-01-03T06:07:44.232Z,0
2017-01-03T06:08:24.696Z,0
2017-01-03T06:09:05.206Z,0
2017-01-03T06:09:45.697Z,0
2017-01-03T06:10:26.209Z,0
2017-01-03T06:11:06.690Z,0
2017-01-03T06:11:47.401Z,0
2017-01-03T06:12:27.930Z,0
2017-01-03T06:13:08.383Z,0
2017-01-03T06:13:48.818Z,0
2017-01-03T06:14:29.347Z,0
2017-01-03T06:15:09.873Z,0
2017-01-03T06:15:50.345Z,0
2017-01-03T06:16:30.820Z,0
2017-01-03T06:17:11.333Z,0
2017-01-03T06:17:51.790Z,0
2017-01-03T06:18:32.290Z,0
2017-01-03T06:19:12.878Z,0
2017-01-03T06:19:53.332Z,0
2017-01-03T06:20:33.794Z,0
2017-01-03T06:21:14.282Z,0
2017-01-03T06:21:54.879Z,0
2017-01-03T06:22:35.356Z,0
2017-01-03T06:23:15.895Z,0
2017-01-03T06:23:56.360Z,0
2017-01-03T06:24:36.865Z,0
2017-01-03T06:25:17.413Z,0
2017-01-03T06:25:57.869Z,0
2017-01-03T06:26:38.353Z,0
2017-01-03T06:27:18.892Z,0
2017-01-03T06:27:59.313Z,0
2017-01-03T06:28:39.828Z,0
2017-01-03T06:29:20.312Z,0
2017-01-03T06:30:00.794Z,0
2017-01-03T06:30:41.342Z,0
2017-01-03T06:31:21.769Z,0
2017-01-03T06:32:02.247Z,0
2017-01-03T06:32:42.820Z,0
2017-01-03T06:33:23.233Z,0
2017-01-03T06:34:03.708Z,0
2017-01-03T06:34:44.194Z,0
2017-01-03T06:35:24.701Z,0
2017-01-03T06:36:05.174Z,0
2017-01-03T06:36:45.692Z,0
2017-01-03T06:37:26.168Z,0
2017-01-03T06:38:06.655Z,0
2017-01-03T06:38:47.129Z,0
2017-01-03T06:39:27.587Z,0
2017-01-03T06:40:08.137Z,0
2017-01-03T06:40:48.567Z,0
2017-01-03T06:41:29.113Z,0
2017-01-03T06:42:09.587Z,0
2017-01-03T06:42:50.095Z,0
2017-01-03T06:43:30.590Z,0
2017-01-03T06:44:11.065Z,0
2017-01-03T06:44:51.653Z,0
2017-01-03T06:45:32.297Z,0
2017-01-03T06:46:12.573Z,0
2017-01-03T06:46:53.095Z,0
2017-01-03T06:47:35.342Z,0
2017-01-03T06:48:15.772Z,0
2017-01-03T06:48:56.260Z,0
2017-01-03T06:49:36.813Z,0
2017-01-03T06:50:17.319Z,4
2017-01-03T06:50:57.776Z,4
2017-01-03T06:51:38.254Z,4
2017-01-03T06:52:18.934Z,4
2017-01-03T06:52:59.454Z,0
2017-01-03T06:53:40.031Z,0
2017-01-03T06:54:20.519Z,4
2017-01-03T06:55:00.988Z,4
2017-01-03T06:55:41.492Z,4
2017-01-03T06:56:22.056Z,0
2017-01-03T06:57:02.504Z,4
2017-01-03T06:57:43.007Z,4
2017-01-03T06:58:23.513Z,4
2017-01-03T06:59:04.008Z,4
2017-01-03T06:59:46.913Z,8
2017-01-03T07:00:27.445Z,4
2017-01-03T07:01:08.007Z,8
2017-01-03T07:01:48.459Z,8
2017-01-03T07:02:28.926Z,8
2017-01-03T07:03:09.470Z,8
2017-01-03T07:03:50.003Z,8
2017-01-03T07:04:30.465Z,12
2017-01-03T07:05:10.959Z,12
2017-01-03T07:05:51.446Z,12
2017-01-03T07:06:31.933Z,16
2017-01-03T07:07:12.396Z,16
2017-01-03T07:07:52.907Z,16
2017-01-03T07:08:33.371Z,16
2017-01-03T07:09:13.897Z,20
2017-01-03T07:09:54.363Z,20
2017-01-03T07:10:34.862Z,24
2017-01-03T07:11:15.310Z,24
2017-01-03T07:11:55.856Z,28
2017-01-03T07:12:36.395Z,32
2017-01-03T07:13:16.875Z,36
2017-01-03T07:13:57.336Z,36
2017-01-03T07:14:37.796Z,40
2017-01-03T07:15:18.334Z,40
2017-01-03T07:15:58.786Z,44
2017-01-03T07:16:39.300Z,44
2017-01-03T07:17:20.014Z,48
2017-01-03T07:18:00.503Z,48
2017-01-03T07:18:41.014Z,52
2017-01-03T07:19:21.467Z,56
2017-01-03T07:20:01.984Z,60
2017-01-03T07:20:42.444Z,60
2017-01-03T07:21:22.932Z,68
2017-01-03T07:22:03.350Z,68
2017-01-03T07:22:43.853Z,72
2017-01-03T07:23:24.349Z,80
2017-01-03T07:24:04.827Z,88
2017-01-03T07:24:45.336Z,92
2017-01-03T07:25:25.832Z,96
2017-01-03T07:26:06.272Z,100
2017-01-03T07:26:46.740Z,104
2017-01-03T07:27:27.230Z,112
2017-01-03T07:28:07.721Z,116
2017-01-03T07:28:48.175Z,120
2017-01-03T07:29:28.719Z,132
2017-01-03T07:30:09.164Z,148
2017-01-03T07:30:49.656Z,156
2017-01-03T07:31:30.150Z,168
2017-01-03T07:32:10.690Z,176
2017-01-03T07:32:51.235Z,184
2017-01-03T07:33:31.716Z,192
2017-01-03T07:34:12.167Z,204
2017-01-03T07:34:52.676Z,212
2017-01-03T07:35:33.218Z,220
2017-01-03T07:36:13.757Z,224
2017-01-03T07:36:54.268Z,228
2017-01-03T07:37:34.748Z,232
2017-01-03T07:38:15.279Z,236
2017-01-03T07:38:55.821Z,240
2017-01-03T07:39:36.330Z,248
2017-01-03T07:40:16.798Z,256
2017-01-03T07:40:57.357Z,276
2017-01-03T07:41:37.772Z,292
2017-01-03T07:42:18.288Z,308
2017-01-03T07:42:58.965Z,316
2017-01-03T07:43:39.505Z,320
2017-01-03T07:44:19.951Z,316
2017-01-03T07:45:00.433Z,316
2017-01-03T07:45:40.970Z,316
2017-01-03T07:46:21.432Z,312
2017-01-03T07:47:02.002Z,320
2017-01-03T07:48:01.293Z,328
2017-01-03T07:48:42.876Z,340
2017-01-03T07:53:00.060Z,408
2017-01-03T07:53:41.738Z,412
2017-01-03T07:54:22.216Z,420
2017-01-03T07:55:02.764Z,428
2017-01-03T07:55:43.261Z,432
2017-01-03T07:56:23.719Z,424
2017-01-03T07:57:04.229Z,388
2017-01-03T07:57:44.716Z,372
2017-01-03T07:58:25.205Z,364
2017-01-03T07:59:05.689Z,344
2017-01-03T07:59:46.132Z,336
2017-01-03T08:00:26.846Z,332
2017-01-03T08:01:07.340Z,332
2017-01-03T08:01:47.809Z,336
2017-01-03T08:02:28.296Z,348
2017-01-03T08:03:08.818Z,344
2017-01-03T08:03:49.273Z,348
2017-01-03T08:04:29.756Z,344
2017-01-03T08:05:10.527Z,332
2017-01-03T08:05:50.831Z,316
2017-01-03T08:06:31.327Z,300
2017-01-03T08:07:11.796Z,296
2017-01-03T08:07:52.383Z,292
2017-01-03T08:08:32.870Z,292
2017-01-03T08:09:13.321Z,300
2017-01-03T08:09:53.799Z,300
2017-01-03T08:10:34.276Z,292
2017-01-03T08:11:14.775Z,280
2017-01-03T08:11:55.326Z,272
2017-01-03T08:12:35.779Z,264
2017-01-03T08:13:16.292Z,268
2017-01-03T08:13:56.796Z,264
2017-01-03T08:14:37.246Z,264
2017-01-03T08:15:17.773Z,264
2017-01-03T08:15:58.263Z,264
2017-01-03T08:16:38.741Z,272
2017-01-03T08:17:19.239Z,272
2017-01-03T08:17:59.693Z,276
2017-01-03T08:18:40.176Z,288
2017-01-03T08:19:20.991Z,292
2017-01-03T08:20:01.421Z,296
2017-01-03T08:20:41.948Z,312
2017-01-03T08:21:23.315Z,324
2017-01-03T08:22:03.799Z,340
2017-01-03T08:22:44.315Z,364
2017-01-03T08:23:25.726Z,376
2017-01-03T08:24:06.386Z,388
2017-01-03T08:24:46.937Z,404
2017-01-03T08:25:27.504Z,412
2017-01-03T08:26:08.074Z,424
2017-01-03T08:26:48.502Z,432
2017-01-03T08:27:29.184Z,440
2017-01-03T08:28:09.696Z,472
2017-01-03T08:28:50.159Z,504
2017-01-03T08:29:30.738Z,524
2017-01-03T08:30:12.315Z,544
2017-01-03T08:30:54.668Z,592
2017-01-03T08:31:35.206Z,608
2017-01-03T08:32:15.689Z,608
2017-01-03T08:32:56.171Z,628
2017-01-03T08:33:36.609Z,652
2017-01-03T08:34:17.158Z,676
2017-01-03T08:34:57.601Z,712
2017-01-03T08:35:38.109Z,724
2017-01-03T08:36:18.561Z,736
2017-01-03T08:36:59.024Z,768
2017-01-03T08:37:39.544Z,784
2017-01-03T08:38:20.008Z,808
2017-01-03T08:39:00.481Z,856
2017-01-03T08:39:41.011Z,896
2017-01-03T08:40:21.504Z,948
2017-01-03T08:41:02.089Z,996
2017-01-03T08:41:42.495Z,1032
2017-01-03T08:42:22.991Z,1056
2017-01-03T08:43:03.517Z,1064
2017-01-03T08:43:43.966Z,1068
2017-01-03T08:44:24.431Z,1056
2017-01-03T08:45:04.965Z,1032
2017-01-03T08:45:45.464Z,1008
2017-01-03T08:46:25.940Z,992
2017-01-03T08:47:06.436Z,996
2017-01-03T08:47:46.987Z,1000
2017-01-03T08:48:27.492Z,988
2017-01-03T08:49:08.087Z,980
2017-01-03T08:49:48.569Z,980
2017-01-03T08:50:29.035Z,980
2017-01-03T08:51:09.547Z,996
2017-01-03T08:51:50.047Z,1004
2017-01-03T08:52:30.560Z,1008
2017-01-03T08:53:11.045Z,1012
2017-01-03T08:53:51.512Z,1004
2017-01-03T08:54:31.988Z,1012
2017-01-03T08:55:12.524Z,1028
2017-01-03T08:55:52.976Z,1036
2017-01-03T08:56:33.528Z,1044
2017-01-03T08:57:13.980Z,1068
2017-01-03T08:57:54.446Z,1108
2017-01-03T08:58:34.920Z,1152
2017-01-03T08:59:15.469Z,1196
2017-01-03T08:59:55.970Z,1232
2017-01-03T09:00:36.490Z,1244
2017-01-03T09:01:16.939Z,1256
2017-01-03T09:01:57.432Z,1256
2017-01-03T09:02:37.950Z,1252
2017-01-03T09:03:18.514Z,1248
2017-01-03T09:03:58.973Z,1232
2017-01-03T09:04:39.483Z,1216
2017-01-03T09:05:19.957Z,1188
2017-01-03T09:06:00.483Z,1196
2017-01-03T09:06:41.017Z,1224
2017-01-03T09:07:21.528Z,1240
2017-01-03T09:08:02.029Z,1276
2017-01-03T09:08:42.503Z,1300
2017-01-03T09:09:23.173Z,1328
2017-01-03T09:10:03.575Z,1372
2017-01-03T09:10:44.062Z,1380
2017-01-03T09:11:24.602Z,1364
2017-01-03T09:12:05.091Z,1352
2017-01-03T09:12:45.760Z,1372
2017-01-03T09:13:26.288Z,1388
2017-01-03T09:14:06.819Z,1420
2017-01-03T09:14:47.232Z,1452
2017-01-03T09:15:27.789Z,1484
2017-01-03T09:16:08.292Z,1508
2017-01-03T09:16:48.771Z,1524
2017-01-03T09:17:29.251Z,1520
2017-01-03T09:18:09.828Z,1524
2017-01-03T09:18:50.298Z,1516
2017-01-03T09:19:30.782Z,1516
2017-01-03T09:20:11.252Z,1524
2017-01-03T09:20:51.753Z,1540
2017-01-03T09:21:32.254Z,1560
2017-01-03T09:22:12.708Z,1568
2017-01-03T09:22:53.200Z,1580
2017-01-03T09:23:33.705Z,1600
2017-01-03T09:24:14.207Z,1620
2017-01-03T09:24:54.747Z,1640
2017-01-03T09:25:35.262Z,1656
2017-01-03T09:26:15.816Z,1668
2017-01-03T09:26:56.358Z,1672
2017-01-03T09:27:36.880Z,1664
2017-01-03T09:28:17.354Z,1656
2017-01-03T09:28:57.864Z,1644
2017-01-03T09:29:38.350Z,1648
2017-01-03T09:30:18.837Z,1676
2017-01-03T09:30:59.370Z,1720
2017-01-03T09:31:39.854Z,1776
2017-01-03T09:32:20.325Z,1832
2017-01-03T09:33:00.809Z,1876
2017-01-03T09:33:41.355Z,1932
2017-01-03T09:34:21.840Z,1988
2017-01-03T09:35:02.278Z,2036
2017-01-03T09:35:42.816Z,2084
2017-01-03T09:36:23.292Z,2112
2017-01-03T09:37:03.788Z,2124
2017-01-03T09:37:44.287Z,2092
2017-01-03T09:38:24.781Z,2080
2017-01-03T09:39:05.288Z,2056
2017-01-03T09:39:45.735Z,2048
2017-01-03T09:40:26.276Z,2048
2017-01-03T09:41:06.798Z,2040
2017-01-03T09:41:47.276Z,2028
2017-01-03T09:42:27.768Z,2004
2017-01-03T09:43:08.244Z,2012
2017-01-03T09:43:48.737Z,2012
2017-01-03T09:44:29.252Z,2052
2017-01-03T09:45:09.791Z,2032
2017-01-03T09:45:50.270Z,2044
2017-01-03T09:46:30.726Z,2116
2017-01-03T09:47:11.243Z,2132
2017-01-03T09:47:51.772Z,2144
2017-01-03T09:48:32.321Z,2144
2017-01-03T09:49:12.743Z,2136
2017-01-03T09:49:53.264Z,2120
2017-01-03T09:50:33.769Z,2100
2017-01-03T09:51:14.221Z,2072
2017-01-03T09:51:54.704Z,2040
2017-01-03T09:52:35.177Z,2016
2017-01-03T09:53:15.688Z,2004
2017-01-03T09:53:56.153Z,1940
2017-01-03T09:54:36.684Z,1936
2017-01-03T09:55:17.201Z,1892
2017-01-03T09:55:57.696Z,1972